createdAt,value
2018-08-09T00:00:23.835Z,1012.38
2018-08-09T00:01:23.907Z,1012.38
2018-08-09T00:02:23.967Z,1012.36
2018-08-09T00:03:24.039Z,1012.34
2018-08-09T00:04:24.107Z,1012.33
2018-08-09T00:05:24.178Z,1012.31
2018-08-09T00:06:24.231Z,1012.30
2018-08-09T00:07:24.301Z,1012.31
2018-08-09T00:08:24.611Z,1012.31
2018-08-09T00:09:24.434Z,1012.31
2018-08-09T00:10:24.494Z,1012.31
2018-08-09T00:11:24.566Z,1012.34
2018-08-09T00:12:24.626Z,1012.35
2018-08-09T00:13:24.705Z,1012.31
2018-08-09T00:14:24.766Z,1012.30
2018-08-09T00:15:24.826Z,1012.30
2018-08-09T00:16:24.895Z,1012.23
2018-08-09T00:17:24.959Z,1012.28
2018-08-09T00:18:25.035Z,1012.22
2018-08-09T00:19:25.099Z,1012.29
2018-08-09T00:20:25.159Z,1012.31
2018-08-09T00:21:25.223Z,1012.23
2018-08-09T00:22:25.291Z,1012.28
2018-08-09T00:23:25.363Z,1012.28
2018-08-09T00:24:25.431Z,1012.24
2018-08-09T00:25:25.491Z,1012.17
2018-08-09T00:26:25.557Z,1012.14
2018-08-09T00:27:25.623Z,1012.14
2018-08-09T00:28:25.695Z,1012.13
2018-08-09T00:29:25.760Z,1012.19
2018-08-09T00:30:25.819Z,1012.15
2018-08-09T00:31:25.895Z,1012.17
2018-08-09T00:32:25.953Z,1012.14
2018-08-09T00:33:26.028Z,1012.14
2018-08-09T00:34:26.091Z,1012.13
2018-08-09T00:35:26.151Z,1012.16
2018-08-09T00:36:26.219Z,1012.11
2018-08-09T00:37:26.287Z,1012.09
2018-08-09T00:38:26.471Z,1012.10
2018-08-09T00:39:26.415Z,1012.04
2018-08-09T00:40:26.484Z,1012.02
2018-08-09T00:41:26.551Z,1012.03
2018-08-09T00:42:26.619Z,1012.02
2018-08-09T00:43:26.687Z,1012.02
2018-08-09T00:44:26.760Z,1012.06
2018-08-09T00:45:26.815Z,1012.08
2018-08-09T00:46:26.880Z,1012.06
2018-08-09T00:47:26.948Z,1012.05
2018-08-09T00:48:27.020Z,1012.08
2018-08-09T00:49:27.084Z,1012.06
2018-08-09T00:50:27.144Z,1012.09
2018-08-09T00:51:27.212Z,1012.07
2018-08-09T00:52:27.284Z,1012.04
2018-08-09T00:53:27.496Z,1012.08
2018-08-09T00:54:27.416Z,1012.09
2018-08-09T00:55:27.476Z,1012.10
2018-08-09T00:56:27.548Z,1012.10
2018-08-09T00:57:27.608Z,1012.15
2018-08-09T00:58:27.685Z,1012.11
2018-08-09T00:59:27.748Z,1012.09
2018-08-09T01:00:27.808Z,1012.09
2018-08-09T01:01:27.872Z,1012.06
2018-08-09T01:02:27.940Z,1012.04
2018-08-09T01:03:28.013Z,1011.99
2018-08-09T01:04:28.083Z,1012.00
2018-08-09T01:05:28.136Z,1012.02
2018-08-09T01:06:28.208Z,1012.00
2018-08-09T01:07:28.276Z,1012.01
2018-08-09T01:08:28.345Z,1011.98
2018-08-09T01:09:28.413Z,1012.00
2018-08-09T01:10:28.469Z,1011.96
2018-08-09T01:11:28.540Z,1011.92
2018-08-09T01:12:28.600Z,1011.97
2018-08-09T01:13:28.681Z,1011.89
2018-08-09T01:14:28.741Z,1011.91
2018-08-09T01:15:28.801Z,1011.96
2018-08-09T01:16:28.869Z,1011.94
2018-08-09T01:17:28.933Z,1011.94
2018-08-09T01:18:29.009Z,1011.90
2018-08-09T01:19:29.073Z,1011.89
2018-08-09T01:20:29.133Z,1011.85
2018-08-09T01:21:29.198Z,1011.87
2018-08-09T01:22:29.269Z,1011.88
2018-08-09T01:23:29.485Z,1011.85
2018-08-09T01:24:29.397Z,1011.87
2018-08-09T01:25:29.461Z,1011.86
2018-08-09T01:26:29.529Z,1011.85
2018-08-09T01:27:29.593Z,1011.87
2018-08-09T01:28:29.666Z,1011.84
2018-08-09T01:29:29.745Z,1011.87
2018-08-09T01:30:29.793Z,1011.86
2018-08-09T01:31:29.861Z,1011.86
2018-08-09T01:32:29.926Z,1011.87
2018-08-09T01:33:29.998Z,1011.88
2018-08-09T01:34:30.066Z,1011.87
2018-08-09T01:35:30.126Z,1011.85
2018-08-09T01:36:30.195Z,1011.79
2018-08-09T01:37:30.258Z,1011.76
2018-08-09T01:38:30.349Z,1011.76
2018-08-09T01:39:30.390Z,1011.72
2018-08-09T01:40:30.457Z,1011.70
2018-08-09T01:41:30.522Z,1011.69
2018-08-09T01:42:30.585Z,1011.68
2018-08-09T01:43:30.658Z,1011.71
2018-08-09T01:44:30.726Z,1011.71
2018-08-09T01:45:30.786Z,1011.68
2018-08-09T01:46:30.850Z,1011.64
2018-08-09T01:47:30.918Z,1011.57
2018-08-09T01:48:30.990Z,1011.58
2018-08-09T01:49:31.057Z,1011.53
2018-08-09T01:50:31.114Z,1011.55
2018-08-09T01:51:31.182Z,1011.62
2018-08-09T01:52:31.250Z,1011.64
2018-08-09T01:53:31.462Z,1011.64
2018-08-09T01:54:31.387Z,1011.66
2018-08-09T01:55:31.446Z,1011.66
2018-08-09T01:56:31.510Z,1011.64
2018-08-09T01:57:31.578Z,1011.64
2018-08-09T01:58:31.671Z,1011.65
2018-08-09T01:59:31.714Z,1011.65
2018-08-09T02:00:31.779Z,1011.65
2018-08-09T02:01:31.843Z,1011.67
2018-08-09T02:02:31.918Z,1011.63
2018-08-09T02:03:31.978Z,1011.63
2018-08-09T02:04:32.101Z,1011.64
2018-08-09T02:05:32.107Z,1011.58
2018-08-09T02:06:32.171Z,1011.60
2018-08-09T02:07:32.239Z,1011.58
2018-08-09T02:08:32.303Z,1011.54
2018-08-09T02:09:32.383Z,1011.56
2018-08-09T02:10:32.435Z,1011.54
2018-08-09T02:11:32.503Z,1011.52
2018-08-09T02:12:32.567Z,1011.55
2018-08-09T02:13:32.637Z,1011.50
2018-08-09T02:14:32.710Z,1011.48
2018-08-09T02:15:32.771Z,1011.49
2018-08-09T02:16:32.831Z,1011.48
2018-08-09T02:17:32.899Z,1011.47
2018-08-09T02:18:32.963Z,1011.45
2018-08-09T02:19:33.035Z,1011.44
2018-08-09T02:20:33.103Z,1011.43
2018-08-09T02:21:33.160Z,1011.39
2018-08-09T02:22:33.227Z,1011.38
2018-08-09T02:23:33.299Z,1011.37
2018-08-09T02:24:33.368Z,1011.37
2018-08-09T02:25:33.431Z,1011.39
2018-08-09T02:26:33.503Z,1011.34
2018-08-09T02:27:33.559Z,1011.34
2018-08-09T02:28:33.623Z,1011.30
2018-08-09T02:29:33.696Z,1011.29
2018-08-09T02:30:33.766Z,1011.24
2018-08-09T02:31:33.820Z,1011.23
2018-08-09T02:32:33.888Z,1011.21
2018-08-09T02:33:33.952Z,1011.20
2018-08-09T02:34:34.027Z,1011.23
2018-08-09T02:35:34.092Z,1011.24
2018-08-09T02:36:34.152Z,1011.19
2018-08-09T02:37:34.215Z,1011.21
2018-08-09T02:38:34.288Z,1011.14
2018-08-09T02:39:34.500Z,1011.15
2018-08-09T02:40:34.416Z,1011.20
2018-08-09T02:41:34.480Z,1011.17
2018-08-09T02:42:34.548Z,1011.16
2018-08-09T02:43:34.612Z,1011.11
2018-08-09T02:44:34.688Z,1011.12
2018-08-09T02:45:34.752Z,1011.10
2018-08-09T02:46:34.859Z,1011.08
2018-08-09T02:47:34.885Z,1011.10
2018-08-09T02:48:34.945Z,1011.11
2018-08-09T02:49:35.021Z,1011.14
2018-08-09T02:50:35.080Z,1011.15
2018-08-09T02:51:35.140Z,1011.12
2018-08-09T02:52:35.209Z,1011.09
2018-08-09T02:53:35.273Z,1011.06
2018-08-09T02:54:35.344Z,1011.06
2018-08-09T02:55:35.418Z,1011.06
2018-08-09T02:56:35.472Z,1011.05
2018-08-09T02:57:35.537Z,1011.07
2018-08-09T02:58:35.604Z,1011.09
2018-08-09T02:59:35.676Z,1011.10
2018-08-09T03:00:35.741Z,1011.05
2018-08-09T03:01:35.801Z,1011.06
2018-08-09T03:02:35.864Z,1010.97
2018-08-09T03:03:35.937Z,1010.96
2018-08-09T03:04:36.011Z,1010.93
2018-08-09T03:05:36.075Z,1010.90
2018-08-09T03:06:36.128Z,1010.92
2018-08-09T03:07:36.198Z,1010.86
2018-08-09T03:08:36.262Z,1010.86
2018-08-09T03:09:36.533Z,1010.83
2018-08-09T03:10:36.394Z,1010.85
2018-08-09T03:11:36.464Z,1010.79
2018-08-09T03:12:36.527Z,1010.78
2018-08-09T03:13:36.594Z,1010.81
2018-08-09T03:14:36.671Z,1010.85
2018-08-09T03:15:36.733Z,1010.87
2018-08-09T03:16:36.789Z,1010.90
2018-08-09T03:17:36.856Z,1010.90
2018-08-09T03:18:36.925Z,1010.93
2018-08-09T03:19:36.989Z,1010.94
2018-08-09T03:20:37.073Z,1011.01
2018-08-09T03:21:37.117Z,1011.02
2018-08-09T03:22:37.190Z,1011.07
2018-08-09T03:23:37.249Z,1011.05
2018-08-09T03:24:37.318Z,1011.07
2018-08-09T03:25:37.406Z,1011.06
2018-08-09T03:26:37.449Z,1011.06
2018-08-09T03:27:37.514Z,1011.04
2018-08-09T03:28:37.577Z,1011.03
2018-08-09T03:29:37.657Z,1011.04
2018-08-09T03:30:37.718Z,1011.02
2018-08-09T03:31:37.785Z,1011.01
2018-08-09T03:32:37.846Z,1010.99
2018-08-09T03:33:37.909Z,1010.93
2018-08-09T03:34:37.973Z,1010.94
2018-08-09T03:35:38.053Z,1010.90
2018-08-09T03:36:38.114Z,1010.88
2018-08-09T03:37:38.174Z,1010.83
2018-08-09T03:38:38.237Z,1010.85
2018-08-09T03:39:38.305Z,1010.82
2018-08-09T03:40:38.387Z,1010.82
2018-08-09T03:41:38.437Z,1010.80
2018-08-09T03:42:38.501Z,1010.81
2018-08-09T03:43:38.565Z,1010.82
2018-08-09T03:44:38.634Z,1010.85
2018-08-09T03:45:38.706Z,1010.84
2018-08-09T03:46:38.770Z,1010.85
2018-08-09T03:47:38.832Z,1010.85
2018-08-09T03:48:38.894Z,1010.88
2018-08-09T03:49:38.962Z,1010.92
2018-08-09T03:50:39.042Z,1010.91
2018-08-09T03:51:39.102Z,1010.95
2018-08-09T03:52:39.158Z,1010.97
2018-08-09T03:53:39.229Z,1011.01
2018-08-09T03:54:39.291Z,1010.99
2018-08-09T03:55:39.367Z,1010.97
2018-08-09T03:56:39.431Z,1011.00
2018-08-09T03:57:39.494Z,1010.99
2018-08-09T03:58:39.562Z,1010.99
2018-08-09T03:59:39.673Z,1010.97
2018-08-09T04:00:39.710Z,1010.94
2018-08-09T04:01:39.758Z,1010.94
2018-08-09T04:02:39.835Z,1010.93
2018-08-09T04:03:39.885Z,1010.88
2018-08-09T04:04:39.951Z,1010.84
2018-08-09T04:05:40.023Z,1010.86
2018-08-09T04:06:40.087Z,1010.88
2018-08-09T04:07:40.147Z,1010.84
2018-08-09T04:08:40.214Z,1010.88
2018-08-09T04:09:40.281Z,1010.88
2018-08-09T04:10:40.361Z,1010.95
2018-08-09T04:11:40.414Z,1010.96
2018-08-09T04:12:40.478Z,1010.95
2018-08-09T04:13:40.543Z,1010.99
2018-08-09T04:14:40.611Z,1011.07
2018-08-09T04:15:40.683Z,1011.08
2018-08-09T04:16:40.804Z,1011.12
2018-08-09T04:17:40.809Z,1011.12
2018-08-09T04:18:40.872Z,1011.10
2018-08-09T04:19:40.939Z,1011.06
2018-08-09T04:20:41.012Z,1011.08
2018-08-09T04:21:41.081Z,1010.99
2018-08-09T04:22:41.136Z,1010.97
2018-08-09T04:23:41.207Z,1010.91
2018-08-09T04:24:41.268Z,1010.90
2018-08-09T04:25:41.695Z,1010.81
2018-08-09T04:26:41.400Z,1010.82
2018-08-09T04:27:41.472Z,1010.81
2018-08-09T04:28:41.532Z,1010.79
2018-08-09T04:29:41.595Z,1010.78
2018-08-09T04:30:41.663Z,1010.75
2018-08-09T04:31:41.843Z,1010.73
2018-08-09T04:32:41.796Z,1010.72
2018-08-09T04:33:41.864Z,1010.73
2018-08-09T04:34:41.928Z,1010.68
2018-08-09T04:35:41.991Z,1010.71
2018-08-09T04:36:42.064Z,1010.70
2018-08-09T04:37:42.144Z,1010.67
2018-08-09T04:38:42.196Z,1010.64
2018-08-09T04:39:42.256Z,1010.66
2018-08-09T04:40:42.324Z,1010.63
2018-08-09T04:41:42.396Z,1010.62
2018-08-09T04:42:42.456Z,1010.59
2018-08-09T04:43:42.528Z,1010.57
2018-08-09T04:44:42.588Z,1010.60
2018-08-09T04:45:42.681Z,1010.63
2018-08-09T04:46:42.724Z,1010.61
2018-08-09T04:47:42.805Z,1010.64
2018-08-09T04:48:42.856Z,1010.67
2018-08-09T04:49:42.916Z,1010.66
2018-08-09T04:50:42.984Z,1010.67
2018-08-09T04:51:43.048Z,1010.71
2018-08-09T04:52:43.140Z,1010.69
2018-08-09T04:53:43.180Z,1010.72
2018-08-09T04:54:43.249Z,1010.66
2018-08-09T04:55:43.312Z,1010.67
2018-08-09T04:56:43.377Z,1010.65
2018-08-09T04:57:43.460Z,1010.59
2018-08-09T04:58:43.517Z,1010.61
2018-08-09T04:59:43.576Z,1010.59
2018-08-09T05:00:43.643Z,1010.66
2018-08-09T05:01:43.713Z,1010.67
2018-08-09T05:02:43.781Z,1010.72
2018-08-09T05:03:43.853Z,1010.72
2018-08-09T05:04:43.909Z,1010.72
2018-08-09T05:05:43.977Z,1010.76
2018-08-09T05:06:44.041Z,1010.75
2018-08-09T05:07:44.123Z,1010.71
2018-08-09T05:08:44.173Z,1010.67
2018-08-09T05:09:44.237Z,1010.67
2018-08-09T05:10:44.308Z,1010.65
2018-08-09T05:11:44.373Z,1010.62
2018-08-09T05:12:44.441Z,1010.61
2018-08-09T05:13:44.533Z,1010.66
2018-08-09T05:14:44.569Z,1010.59
2018-08-09T05:15:44.638Z,1010.60
2018-08-09T05:16:44.702Z,1010.63
2018-08-09T05:17:44.775Z,1010.66
2018-08-09T05:18:44.844Z,1010.61
2018-08-09T05:19:44.901Z,1010.58
2018-08-09T05:20:44.966Z,1010.52
2018-08-09T05:21:45.034Z,1010.53
2018-08-09T05:22:45.122Z,1010.51
2018-08-09T05:23:45.170Z,1010.50
2018-08-09T05:24:45.230Z,1010.52
2018-08-09T05:25:45.300Z,1010.48
2018-08-09T05:26:45.366Z,1010.46
2018-08-09T05:27:45.438Z,1010.45
2018-08-09T05:28:45.507Z,1010.40
2018-08-09T05:29:45.566Z,1010.34
2018-08-09T05:30:45.630Z,1010.31
2018-08-09T05:31:45.695Z,1010.31
2018-08-09T05:32:45.766Z,1010.27
2018-08-09T05:33:45.834Z,1010.25
2018-08-09T05:34:45.907Z,1010.24
2018-08-09T05:35:45.966Z,1010.29
2018-08-09T05:36:46.027Z,1010.27
2018-08-09T05:37:46.107Z,1010.27
2018-08-09T05:38:46.158Z,1010.29
2018-08-09T05:39:46.226Z,1010.32
2018-08-09T05:40:46.290Z,1010.29
2018-08-09T05:41:46.358Z,1010.30
2018-08-09T05:42:46.432Z,1010.28
2018-08-09T05:43:46.503Z,1010.27
2018-08-09T05:44:46.555Z,1010.26
2018-08-09T05:45:46.622Z,1010.27
2018-08-09T05:46:46.690Z,1010.30
2018-08-09T05:47:46.778Z,1010.28
2018-08-09T05:48:46.875Z,1010.23
2018-08-09T05:49:46.886Z,1010.22
2018-08-09T05:50:46.959Z,1010.23
2018-08-09T05:51:47.023Z,1010.23
2018-08-09T05:52:47.176Z,1010.22
2018-08-09T05:53:47.155Z,1010.23
2018-08-09T05:54:47.223Z,1010.25
2018-08-09T05:55:47.291Z,1010.25
2018-08-09T05:56:47.351Z,1010.24
2018-08-09T05:57:47.431Z,1010.26
2018-08-09T05:58:47.491Z,1010.25
2018-08-09T05:59:47.556Z,1010.20
2018-08-09T06:00:47.619Z,1010.21
2018-08-09T06:01:47.683Z,1010.24
2018-08-09T06:02:47.787Z,1010.21
2018-08-09T06:03:47.831Z,1010.25
2018-08-09T06:04:47.883Z,1010.19
2018-08-09T06:05:48.077Z,1010.21
2018-08-09T06:06:48.019Z,1010.17
2018-08-09T06:07:48.244Z,1010.21
2018-08-09T06:08:48.152Z,1010.20
2018-08-09T06:09:48.215Z,1010.24
2018-08-09T06:10:48.284Z,1010.32
2018-08-09T06:11:48.351Z,1010.38
2018-08-09T06:12:48.423Z,1010.37
2018-08-09T06:13:48.496Z,1010.40
2018-08-09T06:14:48.551Z,1010.38
2018-08-09T06:15:48.619Z,1010.38
2018-08-09T06:16:48.683Z,1010.31
2018-08-09T06:17:48.759Z,1010.24
2018-08-09T06:18:48.881Z,1010.18
2018-08-09T06:19:48.891Z,1010.08
2018-08-09T06:20:48.956Z,1010.00
2018-08-09T06:21:49.024Z,1009.96
2018-08-09T06:22:49.088Z,1009.97
2018-08-09T06:23:49.504Z,1009.96
2018-08-09T06:24:49.224Z,1010.06
2018-08-09T06:25:49.287Z,1010.14
2018-08-09T06:26:49.356Z,1010.21
2018-08-09T06:27:49.424Z,1010.27
2018-08-09T06:28:49.497Z,1010.19
2018-08-09T06:29:49.668Z,1010.12
2018-08-09T06:30:49.632Z,1010.03
2018-08-09T06:31:49.699Z,1010.01
2018-08-09T06:32:49.760Z,1010.00
2018-08-09T06:33:49.828Z,1010.00
2018-08-09T06:34:49.907Z,1009.99
2018-08-09T06:35:49.972Z,1009.99
2018-08-09T06:36:50.036Z,1009.97
2018-08-09T06:37:50.100Z,1009.92
2018-08-09T06:38:50.164Z,1009.94
2018-08-09T06:39:50.255Z,1009.90
2018-08-09T06:40:50.300Z,1009.86
2018-08-09T06:41:50.368Z,1009.83
2018-08-09T06:42:50.436Z,1009.83
2018-08-09T06:43:50.525Z,1009.74
2018-08-09T06:44:50.576Z,1009.78
2018-08-09T06:45:50.644Z,1009.76
2018-08-09T06:46:50.704Z,1009.79
2018-08-09T06:47:50.772Z,1009.81
2018-08-09T06:48:50.840Z,1009.83
2018-08-09T06:49:50.920Z,1009.79
2018-08-09T06:50:50.995Z,1009.98
2018-08-09T06:51:51.048Z,1009.94
2018-08-09T06:52:51.117Z,1011.33
2018-08-09T06:53:51.181Z,1011.21
2018-08-09T06:54:51.268Z,1011.32
2018-08-09T06:55:51.318Z,1010.22
2018-08-09T06:56:51.385Z,1010.23
2018-08-09T06:57:51.457Z,1010.24
2018-08-09T06:58:51.524Z,1010.83
2018-08-09T06:59:51.602Z,1010.94
2018-08-09T07:00:51.669Z,1009.98
2018-08-09T07:01:51.733Z,1009.87
2018-08-09T07:02:51.800Z,1009.84
2018-08-09T07:03:51.872Z,1009.86
2018-08-09T07:04:51.944Z,1009.85
2018-08-09T07:05:52.017Z,1009.88
2018-08-09T07:06:52.114Z,1009.89
2018-08-09T07:07:52.152Z,1009.97
2018-08-09T07:08:52.216Z,1009.91
2018-08-09T07:09:52.397Z,1009.81
2018-08-09T07:10:52.356Z,1009.78
2018-08-09T07:11:52.424Z,1009.76
2018-08-09T07:12:52.552Z,1009.71
2018-08-09T07:13:52.565Z,1009.69
2018-08-09T07:14:52.643Z,1009.69
2018-08-09T07:15:52.708Z,1010.25
2018-08-09T07:16:52.768Z,1009.74
2018-08-09T07:17:52.842Z,1009.91
2018-08-09T07:18:52.909Z,1010.97
2018-08-09T07:19:52.989Z,1009.98
2018-08-09T07:20:53.058Z,1009.85
2018-08-09T07:21:53.118Z,1009.73
2018-08-09T07:22:53.189Z,1009.63
2018-08-09T07:23:53.257Z,1009.61
2018-08-09T07:24:53.326Z,1009.59
2018-08-09T07:25:53.757Z,1009.57
2018-08-09T07:26:53.469Z,1009.56
2018-08-09T07:27:53.553Z,1009.61
2018-08-09T07:28:53.605Z,1009.65
2018-08-09T07:29:53.673Z,1009.59
2018-08-09T07:30:53.745Z,1009.61
2018-08-09T07:31:53.829Z,1009.64
2018-08-09T07:32:53.881Z,1009.58
2018-08-09T07:33:54.042Z,1009.60
2018-08-09T07:34:54.022Z,1009.58
2018-08-09T07:35:54.089Z,1009.61
2018-08-09T07:36:54.266Z,1009.89
2018-08-09T07:37:54.229Z,1009.88
2018-08-09T07:38:54.298Z,1009.67
2018-08-09T07:39:54.366Z,1009.70
2018-08-09T07:40:54.433Z,1009.89
2018-08-09T07:41:54.513Z,1010.02
2018-08-09T07:42:54.582Z,1010.06
2018-08-09T07:43:54.646Z,1009.82
2018-08-09T07:44:54.718Z,1009.73
2018-08-09T07:45:54.786Z,1009.72
2018-08-09T07:46:54.862Z,1009.66
2018-08-09T07:47:54.930Z,1009.59
2018-08-09T07:48:54.990Z,1009.60
2018-08-09T07:49:55.062Z,1009.61
2018-08-09T07:50:55.131Z,1009.58
2018-08-09T07:51:55.215Z,1009.53
2018-08-09T07:52:55.270Z,1009.56
2018-08-09T07:53:55.338Z,1009.52
2018-08-09T07:54:55.411Z,1009.49
2018-08-09T07:55:55.478Z,1009.46
2018-08-09T07:56:55.569Z,1009.39
2018-08-09T07:57:55.634Z,1009.35
2018-08-09T07:58:55.691Z,1009.31
2018-08-09T07:59:55.759Z,1009.31
2018-08-09T08:00:55.838Z,1009.32
2018-08-09T08:01:55.911Z,1009.31
2018-08-09T08:02:55.975Z,1009.27
2018-08-09T08:03:56.036Z,1009.26
2018-08-09T08:04:56.115Z,1009.21
2018-08-09T08:05:56.190Z,1009.17
2018-08-09T08:06:56.395Z,1009.14
2018-08-09T08:07:56.315Z,1009.17
2018-08-09T08:08:56.383Z,1009.18
2018-08-09T08:09:56.455Z,1009.26
2018-08-09T08:10:56.525Z,1009.32
2018-08-09T08:11:56.599Z,1009.43
2018-08-09T08:12:56.675Z,1010.06
2018-08-09T08:13:56.732Z,1010.08
2018-08-09T08:14:56.852Z,1010.09
2018-08-09T08:15:56.872Z,1010.11
2018-08-09T08:16:56.988Z,1010.00
2018-08-09T08:17:57.019Z,1010.02
2018-08-09T08:18:57.088Z,1009.84
2018-08-09T08:19:57.164Z,1009.57
2018-08-09T08:20:57.232Z,1009.68
2018-08-09T08:21:57.320Z,1009.39
2018-08-09T08:22:57.375Z,1009.21
2018-08-09T08:23:57.451Z,1009.14
2018-08-09T08:24:57.520Z,1009.07
2018-08-09T08:25:57.596Z,1008.98
2018-08-09T08:26:57.676Z,1008.95
2018-08-09T08:27:57.748Z,1008.91
2018-08-09T08:28:57.812Z,1008.89
2018-08-09T08:29:57.888Z,1008.92
2018-08-09T08:30:57.956Z,1008.91
2018-08-09T08:31:58.037Z,1008.87
2018-08-09T08:32:58.113Z,1008.93
2018-08-09T08:33:58.173Z,1008.85
2018-08-09T08:34:58.257Z,1008.83
2018-08-09T08:35:58.317Z,1008.81
2018-08-09T08:36:58.409Z,1008.84
2018-08-09T08:37:58.461Z,1008.86
2018-08-09T08:38:58.533Z,1008.90
2018-08-09T08:39:58.605Z,1008.91
2018-08-09T08:40:58.677Z,1008.95
2018-08-09T08:41:58.753Z,1008.95
2018-08-09T08:42:58.825Z,1009.01
2018-08-09T08:43:58.889Z,1008.98
2018-08-09T08:44:58.958Z,1008.98
2018-08-09T08:45:59.029Z,1008.91
2018-08-09T08:46:59.277Z,1008.89
2018-08-09T08:47:59.173Z,1008.87
2018-08-09T08:48:59.244Z,1008.82
2018-08-09T08:49:59.316Z,1008.85
2018-08-09T08:50:59.393Z,1008.82
2018-08-09T08:51:59.462Z,1008.85
2018-08-09T08:52:59.529Z,1008.87
2018-08-09T08:53:59.596Z,1008.88
2018-08-09T08:54:59.666Z,1008.86
2018-08-09T08:55:59.737Z,1008.85
2018-08-09T08:56:59.813Z,1008.87
2018-08-09T08:57:59.890Z,1008.85
2018-08-09T08:58:59.950Z,1008.83
2018-08-09T09:00:00.024Z,1008.76
2018-08-09T09:01:00.121Z,1008.72
2018-08-09T09:02:00.318Z,1008.68
2018-08-09T09:03:00.234Z,1008.69
2018-08-09T09:04:00.310Z,1008.68
2018-08-09T09:05:00.378Z,1008.63
2018-08-09T09:06:00.446Z,1008.64
2018-08-09T09:07:00.578Z,1008.56
2018-08-09T09:08:00.594Z,1008.49
2018-08-09T09:09:00.658Z,1008.45
2018-08-09T09:10:00.730Z,1008.40
2018-08-09T09:11:00.803Z,1008.36
2018-08-09T09:12:00.878Z,1008.30
2018-08-09T09:13:00.951Z,1008.31
2018-08-09T09:14:01.015Z,1008.22
2018-08-09T09:15:01.082Z,1008.22
2018-08-09T09:16:01.155Z,1008.20
2018-08-09T09:17:01.226Z,1008.23
2018-08-09T09:18:01.450Z,1008.40
2018-08-09T09:19:01.367Z,1008.15
2018-08-09T09:20:01.439Z,1008.10
2018-08-09T09:21:01.510Z,1008.17
2018-08-09T09:22:01.587Z,1008.07
2018-08-09T09:23:01.662Z,1008.07
2018-08-09T09:24:01.740Z,1008.12
2018-08-09T09:25:01.794Z,1008.13
2018-08-09T09:26:01.866Z,1008.10
2018-08-09T09:27:01.962Z,1008.16
2018-08-09T09:28:02.022Z,1008.38
2018-08-09T09:29:02.091Z,1008.40
2018-08-09T09:30:02.155Z,1008.30
2018-08-09T09:31:02.222Z,1008.15
2018-08-09T09:32:02.294Z,1008.16
2018-08-09T09:33:02.374Z,1008.06
2018-08-09T09:34:02.449Z,1007.95
2018-08-09T09:35:02.564Z,1007.89
2018-08-09T09:36:02.582Z,1007.85
2018-08-09T09:37:02.655Z,1007.78
2018-08-09T09:38:02.735Z,1007.72
2018-08-09T09:39:02.807Z,1007.74
2018-08-09T09:40:02.874Z,1007.90
2018-08-09T09:41:02.943Z,1007.91
2018-08-09T09:42:03.015Z,1007.82
2018-08-09T09:43:03.103Z,1007.66
2018-08-09T09:44:03.159Z,1007.62
2018-08-09T09:45:03.231Z,1007.53
2018-08-09T09:46:03.303Z,1007.50
2018-08-09T09:47:03.423Z,1007.40
2018-08-09T09:48:03.455Z,1007.34
2018-08-09T09:49:03.527Z,1007.28
2018-08-09T09:50:03.595Z,1007.37
2018-08-09T09:51:03.663Z,1007.39
2018-08-09T09:52:03.740Z,1007.33
2018-08-09T09:53:03.819Z,1007.32
2018-08-09T09:54:03.892Z,1007.16
2018-08-09T09:55:03.965Z,1007.07
2018-08-09T09:56:04.082Z,1007.12
2018-08-09T09:57:04.104Z,1007.04
2018-08-09T09:58:04.200Z,1006.98
2018-08-09T09:59:04.251Z,1006.90
2018-08-09T10:00:04.329Z,1006.83
2018-08-09T10:01:04.401Z,1006.77
2018-08-09T10:02:04.536Z,1006.70
2018-08-09T10:03:04.552Z,1006.64
2018-08-09T10:04:04.629Z,1006.56
2018-08-09T10:05:04.692Z,1006.46
2018-08-09T10:06:04.768Z,1006.37
2018-08-09T10:07:04.906Z,1006.32
2018-08-09T10:08:04.920Z,1006.26
2018-08-09T10:09:04.996Z,1006.24
2018-08-09T10:10:05.060Z,1006.19
2018-08-09T10:11:05.136Z,1006.19
2018-08-09T10:12:05.212Z,1006.25
2018-08-09T10:13:05.292Z,1006.26
2018-08-09T10:14:05.372Z,1006.24
2018-08-09T10:15:05.432Z,1006.30
2018-08-09T10:16:05.508Z,1006.28
2018-08-09T10:17:05.580Z,1006.26
2018-08-09T10:18:05.652Z,1006.23
2018-08-09T10:19:05.736Z,1006.22
2018-08-09T10:20:05.817Z,1006.21
2018-08-09T10:21:05.880Z,1006.25
2018-08-09T10:22:05.956Z,1006.21
2018-08-09T10:23:06.025Z,1006.24
2018-08-09T10:24:06.446Z,1006.25
2018-08-09T10:25:06.173Z,1006.21
2018-08-09T10:26:06.252Z,1006.24
2018-08-09T10:27:06.321Z,1006.24
2018-08-09T10:28:06.397Z,1006.20
2018-08-09T10:29:06.478Z,1006.22
2018-08-09T10:30:06.551Z,1006.20
2018-08-09T10:31:06.617Z,1006.12
2018-08-09T10:32:06.697Z,1006.05
2018-08-09T10:33:06.769Z,1006.05
2018-08-09T10:34:06.845Z,1006.05
2018-08-09T10:35:06.925Z,1006.01
2018-08-09T10:36:06.993Z,1005.96
2018-08-09T10:37:07.061Z,1005.95
2018-08-09T10:38:07.137Z,1005.94
2018-08-09T10:39:07.337Z,1005.91
2018-08-09T10:40:07.288Z,1005.92
2018-08-09T10:41:07.362Z,1005.90
2018-08-09T10:42:07.437Z,1005.88
2018-08-09T10:43:07.505Z,1005.91
2018-08-09T10:44:07.586Z,1005.83
2018-08-09T10:45:07.657Z,1005.83
2018-08-09T10:46:07.729Z,1005.86
2018-08-09T10:47:07.797Z,1005.74
2018-08-09T10:48:07.872Z,1005.75
2018-08-09T10:49:07.955Z,1005.74
2018-08-09T10:50:08.025Z,1005.82
2018-08-09T10:51:08.089Z,1005.78
2018-08-09T10:52:08.166Z,1005.69
2018-08-09T10:53:08.238Z,1005.69
2018-08-09T10:54:08.493Z,1005.59
2018-08-09T10:55:08.381Z,1005.56
2018-08-09T10:56:08.458Z,1005.57
2018-08-09T10:57:08.530Z,1005.48
2018-08-09T10:58:08.602Z,1005.45
2018-08-09T10:59:08.686Z,1005.48
2018-08-09T11:00:08.754Z,1005.43
2018-08-09T11:01:08.822Z,1005.45
2018-08-09T11:02:08.894Z,1005.36
2018-08-09T11:03:08.966Z,1005.36
2018-08-09T11:04:09.046Z,1005.34
2018-08-09T11:05:09.118Z,1005.34
2018-08-09T11:06:09.182Z,1005.27
2018-08-09T11:07:09.254Z,1005.20
2018-08-09T11:08:09.337Z,1005.19
2018-08-09T11:09:09.506Z,1005.14
2018-08-09T11:10:09.476Z,1005.19
2018-08-09T11:11:09.546Z,1005.17
2018-08-09T11:12:09.619Z,1005.19
2018-08-09T11:13:09.690Z,1005.22
2018-08-09T11:14:09.782Z,1005.25
2018-08-09T11:15:09.897Z,1005.28
2018-08-09T11:16:09.907Z,1005.29
2018-08-09T11:17:09.979Z,1005.31
2018-08-09T11:18:10.054Z,1005.36
2018-08-09T11:19:10.143Z,1005.35
2018-08-09T11:20:10.203Z,1005.34
2018-08-09T11:21:10.270Z,1005.24
2018-08-09T11:22:10.343Z,1005.26
2018-08-09T11:23:10.419Z,1005.22
2018-08-09T11:24:10.495Z,1005.13
2018-08-09T11:25:10.567Z,1005.10
2018-08-09T11:26:10.631Z,1005.16
2018-08-09T11:27:10.707Z,1005.04
2018-08-09T11:28:10.781Z,1005.11
2018-08-09T11:29:10.859Z,1005.04
2018-08-09T11:30:10.927Z,1004.98
2018-08-09T11:31:10.999Z,1004.96
2018-08-09T11:32:11.067Z,1004.92
2018-08-09T11:33:11.140Z,1004.93
2018-08-09T11:34:11.232Z,1004.91
2018-08-09T11:35:11.284Z,1004.93
2018-08-09T11:36:11.360Z,1004.94
2018-08-09T11:37:11.431Z,1004.94
2018-08-09T11:38:11.499Z,1004.90
2018-08-09T11:39:11.579Z,1004.98
2018-08-09T11:40:11.655Z,1004.99
2018-08-09T11:41:11.719Z,1004.95
2018-08-09T11:42:11.791Z,1004.95
2018-08-09T11:43:11.859Z,1004.95
2018-08-09T11:44:11.954Z,1004.88
2018-08-09T11:45:12.011Z,1004.85
2018-08-09T11:46:12.080Z,1004.79
2018-08-09T11:47:12.155Z,1004.76
2018-08-09T11:48:12.227Z,1004.70
2018-08-09T11:49:12.299Z,1004.61
2018-08-09T11:50:12.532Z,1004.64
2018-08-09T11:51:12.436Z,1004.59
2018-08-09T11:52:12.511Z,1004.57
2018-08-09T11:53:12.580Z,1004.54
2018-08-09T11:54:12.656Z,1004.53
2018-08-09T11:55:12.732Z,1004.43
2018-08-09T11:56:12.885Z,1004.48
2018-08-09T11:57:12.874Z,1004.51
2018-08-09T11:58:12.944Z,1004.46
2018-08-09T11:59:13.016Z,1004.43
2018-08-09T12:00:13.188Z,1004.40
2018-08-09T12:01:13.160Z,1004.29
2018-08-09T12:02:13.237Z,1004.18
2018-08-09T12:03:13.360Z,1004.10
2018-08-09T12:04:13.376Z,1004.06
2018-08-09T12:05:13.456Z,1004.00
2018-08-09T12:06:13.528Z,1003.99